Terminal Aerodrome Forecast
Issued by NWS Cleveland, OH

Home | Current Version | Previous Version | Graphics & Text | Print | Product List | Glossary On
Versions: 1 2 3 4 5 6 7 8 9 10 11 12 13 14 15 16
539
FTUS41 KCLE 290517 AAB
TAFERI
TAF AMD
KERI 290517Z 2905/2924 VRB03KT P6SM BKN008 OVC015
     FM290800 02003KT P6SM SCT015
     FM291000 02005KT P6SM SKC
     FM291500 36008KT P6SM SKC=

USA.gov is the U.S. government's official web portal to all federal, state and local government web resources and services.